Time;durP1;ratioP1;P1;durP2;ratioP2;P2;SDS_P1;SDS_P2;PMS_P1;PMS_P2;Temp;Humidity;BMP_temperature;BMP_pressure;BME280_temperature;BME280_humidity;BME280_pressure;Samples;Min_cycle;Max_cycle;Signal;HPM_P1;HPM_P2
2022/12/26 00:00:34;;;;;;;17.65;8.73;;;11.00;99.90;;;;;;10508358;28;20485;-24
2022/12/26 00:05:37;;;;;;;9.88;5.35;;;10.70;99.90;;;;;;10496605;28;20044;-26
2022/12/26 00:10:39;;;;;;;12.10;6.83;;;11.20;99.90;;;;;;10497594;28;20657;-25
2022/12/26 00:15:42;;;;;;;14.68;7.97;;;11.90;99.90;;;;;;10480608;28;20144;-26
2022/12/26 00:20:44;;;;;;;9.73;6.32;;;10.70;99.90;;;;;;10501089;28;20833;-26
2022/12/26 00:25:46;;;;;;;10.95;4.75;;;11.10;99.90;;;;;;10493207;28;20083;-26
2022/12/26 00:30:49;;;;;;;10.35;6.95;;;11.60;99.90;;;;;;10493539;28;20072;-24
2022/12/26 00:35:51;;;;;;;8.70;5.97;;;11.70;99.90;;;;;;10486095;28;20102;-25
2022/12/26 00:40:53;;;;;;;12.82;7.18;;;11.50;99.90;;;;;;10490909;28;20456;-24
2022/12/26 00:45:56;;;;;;;9.18;6.20;;;10.90;99.90;;;;;;10494094;28;20072;-27
2022/12/26 00:50:58;;;;;;;10.98;6.40;;;11.10;99.90;;;;;;10494567;28;20071;-25
2022/12/26 00:56:00;;;;;;;10.63;6.47;;;10.60;99.90;;;;;;10473121;28;20051;-25
2022/12/26 01:01:09;;;;;;;14.88;6.50;;;10.60;99.90;;;;;;10489938;28;20052;-26
2022/12/26 01:06:11;;;;;;;13.30;7.38;;;10.80;99.90;;;;;;10497501;28;20052;-25
2022/12/26 01:11:14;;;;;;;14.17;6.30;;;10.80;99.90;;;;;;10498236;28;20052;-23
2022/12/26 01:16:19;;;;;;;10.88;6.60;;;11.10;99.90;;;;;;10500557;28;20079;-24
2022/12/26 01:21:21;;;;;;;8.88;5.88;;;10.70;99.90;;;;;;10485850;28;20127;-25
2022/12/26 01:26:23;;;;;;;8.63;5.32;;;11.00;99.90;;;;;;10478494;28;20468;-25
2022/12/26 01:31:26;;;;;;;10.27;5.03;;;10.70;99.90;;;;;;10517495;28;20386;-28
2022/12/26 01:36:28;;;;;;;8.65;4.63;;;10.80;99.90;;;;;;10504712;28;20147;-25
2022/12/26 01:41:32;;;;;;;11.57;4.97;;;10.90;99.90;;;;;;10493603;28;20095;-25
2022/12/26 01:46:39;;;;;;;8.27;5.47;;;10.70;99.90;;;;;;10500166;28;20094;-25
2022/12/26 01:51:46;;;;;;;6.05;3.70;;;10.80;99.90;;;;;;10509748;28;20068;-26
2022/12/26 01:56:48;;;;;;;9.32;5.65;;;11.10;99.90;;;;;;10503209;28;20489;-24
2022/12/26 02:01:53;;;;;;;9.20;6.03;;;10.70;99.90;;;;;;10482859;28;20071;-26
2022/12/26 02:06:55;;;;;;;11.20;6.50;;;10.20;99.90;;;;;;10492745;28;20102;-27
2022/12/26 02:12:03;;;;;;;11.50;6.00;;;10.90;99.90;;;;;;10497229;28;20183;-24
2022/12/26 02:17:07;;;;;;;13.00;4.40;;;10.50;99.90;;;;;;10506575;28;20083;-25
2022/12/26 02:22:33;;;;;;;9.13;5.45;;;11.80;99.90;;;;;;10486752;28;20098;-26
2022/12/26 02:28:08;;;;;;;8.38;5.38;;;12.10;99.90;;;;;;10497519;28;20045;-26
2022/12/26 02:33:24;;;;;;;8.60;5.18;;;11.10;99.90;;;;;;10485286;28;20041;-26
2022/12/26 02:38:35;;;;;;;17.08;9.13;;;11.40;99.90;;;;;;10481691;28;20480;-25
2022/12/26 02:43:44;;;;;;;11.65;7.55;;;10.60;99.90;;;;;;10475801;28;20133;-24
2022/12/26 02:48:58;;;;;;;8.52;5.88;;;10.50;99.90;;;;;;10489303;28;20080;-25
2022/12/26 03:21:09;;;;;;;8.25;6.60;;;10.70;99.90;;;;;;10471403;28;20049;-25
2022/12/26 03:31:35;;;;;;;8.65;6.25;;;10.60;99.90;;;;;;10503469;28;20086;-26
2022/12/26 03:36:49;;;;;;;9.98;5.05;;;10.30;99.90;;;;;;10500316;28;20118;-24
2022/12/26 04:20:02;;;;;;;9.57;2.85;;;10.70;99.90;;;;;;10491578;28;20052;-25
2022/12/26 04:46:43;;;;;;;5.22;2.50;;;10.20;99.90;;;;;;10520697;28;20430;-25
2022/12/26 04:51:45;;;;;;;8.15;3.05;;;10.20;99.90;;;;;;10494590;28;20109;-23
2022/12/26 04:56:48;;;;;;;6.03;2.05;;;9.80;99.90;;;;;;10510787;28;20072;-25
2022/12/26 05:12:37;;;;;;;7.38;2.28;;;10.50;99.90;;;;;;10467393;28;20555;-24
2022/12/26 05:39:00;;;;;;;4.70;2.55;;;10.50;99.90;;;;;;10507365;28;20078;-26
2022/12/26 05:44:04;;;;;;;5.33;2.63;;;9.90;99.90;;;;;;10510839;28;20406;-25
2022/12/26 05:49:07;;;;;;;9.75;2.75;;;9.80;99.90;;;;;;10476151;28;20040;-25
2022/12/26 05:54:09;;;;;;;9.33;2.77;;;9.70;99.90;;;;;;10480945;28;20045;-26
2022/12/26 05:59:12;;;;;;;6.38;2.53;;;10.20;99.90;;;;;;10464219;28;20439;-25
2022/12/26 06:04:13;;;;;;;;;;;10.40;99.90;;;;;;10495865;28;20121;-25
2022/12/26 06:09:15;;;;;;;5.85;2.45;;;10.00;99.90;;;;;;10481453;28;19924;-26
2022/12/26 06:14:18;;;;;;;7.88;2.55;;;9.90;99.90;;;;;;10466959;28;20113;-25
2022/12/26 06:19:20;;;;;;;4.25;1.95;;;9.50;99.90;;;;;;10482463;28;20444;-26
2022/12/26 06:24:22;;;;;;;1.20;1.10;;;10.00;99.90;;;;;;10491780;28;20560;-26
2022/12/26 06:29:25;;;;;;;9.23;2.42;;;11.00;99.90;;;;;;10480173;28;20050;-25
2022/12/26 06:34:27;;;;;;;8.07;2.47;;;10.20;99.90;;;;;;10465957;28;20090;-25
2022/12/26 06:39:29;;;;;;;7.35;1.90;;;9.90;99.90;;;;;;10485004;28;20114;-25
2022/12/26 06:44:32;;;;;;;7.20;2.85;;;10.60;99.90;;;;;;10491737;28;20458;-24
2022/12/26 06:49:35;;;;;;;4.20;1.73;;;10.10;99.90;;;;;;10491849;28;20091;-26
2022/12/26 06:54:36;;;;;;;6.53;2.17;;;10.40;99.90;;;;;;10485094;28;20535;-25
2022/12/26 06:59:39;;;;;;;10.25;2.40;;;10.20;99.90;;;;;;10476370;28;20086;-25
2022/12/26 07:15:29;;;;;;;8.70;2.63;;;10.20;99.90;;;;;;10501188;27;20127;-25
2022/12/26 07:20:31;;;;;;;7.93;2.17;;;10.10;99.90;;;;;;10487657;28;20072;-25
2022/12/26 07:25:32;;;;;;;9.80;2.03;;;10.10;99.90;;;;;;10487157;28;20101;-25
2022/12/26 07:30:36;;;;;;;8.57;2.70;;;10.50;99.90;;;;;;10480637;28;20234;-25
2022/12/26 07:35:37;;;;;;;;;;;10.20;99.90;;;;;;10482576;28;20125;-25
2022/12/26 07:40:39;;;;;;;7.22;1.73;;;10.00;99.90;;;;;;10482534;28;20423;-25
2022/12/26 07:45:42;;;;;;;9.00;2.00;;;10.10;99.90;;;;;;10487213;28;20052;-25
2022/12/26 07:50:46;;;;;;;12.18;2.50;;;10.20;99.90;;;;;;10480494;28;20077;-25
2022/12/26 07:55:48;;;;;;;5.00;1.63;;;9.70;99.90;;;;;;10482140;28;20041;-25
2022/12/26 08:00:51;;;;;;;7.78;1.02;;;9.40;99.90;;;;;;10460636;28;20056;-29
2022/12/26 08:05:53;;;;;;;6.75;1.40;;;9.70;99.90;;;;;;10468296;28;20072;-25
2022/12/26 08:10:59;;;;;;;7.20;1.23;;;9.60;99.90;;;;;;10461358;28;20064;-25
2022/12/26 08:16:07;;;;;;;13.65;2.03;;;9.50;99.90;;;;;;10482659;28;20475;-25
2022/12/26 08:21:09;;;;;;;12.43;1.42;;;9.50;99.90;;;;;;10484515;28;20119;-25
2022/12/26 08:26:19;;;;;;;9.45;1.38;;;9.10;99.90;;;;;;10463853;28;20044;-24
2022/12/26 08:31:22;;;;;;;17.02;2.38;;;9.30;99.90;;;;;;10444584;28;20049;-24
2022/12/26 08:36:25;;;;;;;14.13;1.88;;;9.10;99.90;;;;;;10450323;28;20049;-27
2022/12/26 08:41:26;;;;;;;19.80;2.37;;;9.30;99.90;;;;;;10468284;28;20055;-25
2022/12/26 08:46:30;;;;;;;15.32;2.03;;;9.00;99.90;;;;;;10451201;28;20068;-26
2022/12/26 08:51:32;;;;;;;11.80;1.77;;;8.90;99.90;;;;;;10454140;28;20052;-27
2022/12/26 08:56:34;;;;;;;9.80;1.40;;;9.50;99.90;;;;;;10461157;28;20065;-24
2022/12/26 09:01:37;;;;;;;15.48;2.63;;;9.10;99.90;;;;;;10453130;28;20052;-26
2022/12/26 09:06:40;;;;;;;18.27;1.60;;;9.20;99.90;;;;;;10445420;28;20075;-25
2022/12/26 09:11:42;;;;;;;18.40;2.40;;;9.20;99.90;;;;;;10452263;28;20164;-25
2022/12/26 09:16:46;;;;;;;9.67;1.77;;;8.50;99.90;;;;;;10459674;28;20069;-25
2022/12/26 09:22:49;;;;;;;7.63;1.52;;;8.40;99.90;;;;;;10436792;28;20046;-26
2022/12/26 09:27:10;;;;;;;9.65;1.50;;;9.10;99.90;;;;;;10442187;28;20051;-25
2022/12/26 09:32:14;;;;;;;11.77;1.42;;;8.30;99.90;;;;;;10434577;28;20183;-25
2022/12/26 09:37:16;;;;;;;8.73;1.40;;;7.60;99.90;;;;;;10458740;28;20547;-25
2022/12/26 09:42:28;;;;;;;5.10;1.05;;;8.10;99.90;;;;;;10436586;28;20530;-29
2022/12/26 09:47:37;;;;;;;9.32;1.50;;;8.40;99.90;;;;;;10438712;28;20132;-26
2022/12/26 09:52:43;;;;;;;6.03;1.35;;;8.30;99.90;;;;;;10434027;28;20080;-25
2022/12/26 09:57:48;;;;;;;4.25;1.30;;;7.80;99.90;;;;;;10446265;28;20057;-25
2022/12/26 10:02:55;;;;;;;11.40;2.05;;;8.40;99.90;;;;;;10435458;28;20479;-25
2022/12/26 10:08:02;;;;;;;7.95;1.65;;;8.80;99.90;;;;;;10433845;28;20041;-25
2022/12/26 10:13:10;;;;;;;6.63;1.60;;;8.70;99.90;;;;;;10433087;28;20126;-25
2022/12/26 10:18:25;;;;;;;8.65;3.05;;;8.60;99.90;;;;;;10438964;28;20052;-26
2022/12/26 10:23:34;;;;;;;5.65;1.30;;;8.30;99.90;;;;;;10455604;28;20124;-25
2022/12/26 10:28:39;;;;;;;5.07;1.10;;;8.50;99.90;;;;;;10429280;28;20065;-26
2022/12/26 10:33:47;;;;;;;13.65;1.83;;;8.80;99.90;;;;;;10434488;28;20057;-25
2022/12/26 10:38:52;;;;;;;15.38;1.98;;;8.70;99.90;;;;;;10443291;28;20080;-25
2022/12/26 10:43:54;;;;;;;12.32;3.22;;;8.80;99.90;;;;;;10457721;28;20044;-25
2022/12/26 10:48:58;;;;;;;10.67;1.30;;;8.30;99.90;;;;;;10461536;28;20053;-25
2022/12/26 10:54:00;;;;;;;8.57;1.38;;;8.50;99.90;;;;;;10452550;28;20049;-26
2022/12/26 10:59:04;;;;;;;5.05;1.08;;;8.60;99.90;;;;;;10443424;28;20071;-25
2022/12/26 11:04:16;;;;;;;6.00;1.10;;;8.30;99.90;;;;;;10440885;28;20049;-24
2022/12/26 11:09:34;;;;;;;6.50;1.00;;;8.60;97.60;;;;;;10439175;28;20068;-27
2022/12/26 11:14:39;;;;;;;7.78;0.90;;;8.80;99.90;;;;;;10446523;28;20060;-25
2022/12/26 11:19:45;;;;;;;9.93;0.95;;;8.40;99.90;;;;;;10430116;28;20115;-24
2022/12/26 11:25:02;;;;;;;4.63;1.40;;;8.50;99.10;;;;;;10440883;28;20136;-25
2022/12/26 11:30:16;;;;;;;3.00;0.88;;;9.40;99.90;;;;;;10452108;28;20049;-27
2022/12/26 11:35:22;;;;;;;6.20;1.70;;;9.00;97.40;;;;;;10449431;28;20042;-25
2022/12/26 11:40:29;;;;;;;9.15;1.30;;;8.90;95.60;;;;;;10468010;28;20076;-24
2022/12/26 11:45:35;;;;;;;6.90;0.85;;;8.40;93.50;;;;;;10448864;28;20141;-25
2022/12/26 11:50:45;;;;;;;4.68;1.10;;;8.90;98.80;;;;;;10471810;28;20045;-28
2022/12/26 11:55:58;;;;;;;6.90;1.05;;;9.40;88.60;;;;;;10456838;28;20092;-28
2022/12/26 12:01:06;;;;;;;3.65;1.20;;;8.80;96.50;;;;;;10457067;28;20049;-26
2022/12/26 12:06:26;;;;;;;3.58;0.80;;;8.30;94.20;;;;;;10445978;28;20511;-27
2022/12/26 12:11:35;;;;;;;2.97;1.20;;;8.00;97.80;;;;;;10474606;28;20409;-25
2022/12/26 12:16:46;;;;;;;1.70;0.68;;;8.50;99.90;;;;;;10479636;28;20057;-25
2022/12/26 12:22:17;;;;;;;12.23;1.20;;;9.80;99.90;;;;;;10459491;28;20088;-25
2022/12/26 12:27:26;;;;;;;2.92;0.82;;;8.80;95.90;;;;;;10452994;28;20064;-25
2022/12/26 12:32:33;;;;;;;3.67;0.90;;;9.10;99.90;;;;;;10442106;28;20084;-25
2022/12/26 12:37:52;;;;;;;4.78;1.10;;;10.30;98.20;;;;;;10453401;28;20044;-24
2022/12/26 12:43:00;;;;;;;3.25;0.60;;;8.90;94.20;;;;;;10440680;28;20048;-25
2022/12/26 12:48:21;;;;;;;5.60;0.88;;;9.50;91.00;;;;;;10439112;28;20085;-25
2022/12/26 12:53:37;;;;;;;4.50;1.23;;;9.30;78.00;;;;;;10441526;28;20493;-25
2022/12/26 12:58:45;;;;;;;5.85;1.17;;;10.30;91.50;;;;;;10448125;28;20053;-25
2022/12/26 13:03:53;;;;;;;4.47;1.40;;;9.30;99.90;;;;;;10442748;28;20057;-25
2022/12/26 13:09:00;;;;;;;4.53;1.05;;;10.40;99.10;;;;;;10438768;28;20049;-24
2022/12/26 13:14:07;;;;;;;3.38;0.88;;;9.50;95.70;;;;;;10447992;28;20065;-23
2022/12/26 13:19:20;;;;;;;8.15;1.55;;;11.20;98.40;;;;;;10450592;28;20041;-25
2022/12/26 13:24:30;;;;;;;5.80;0.90;;;9.00;74.20;;;;;;10449123;28;20087;-26
2022/12/26 13:29:43;;;;;;;5.57;0.77;;;9.70;82.60;;;;;;10455976;28;20048;-25
2022/12/26 13:34:45;;;;;;;;;;;9.90;97.20;;;;;;10465077;28;20604;-27
2022/12/26 13:39:52;;;;;;;4.50;0.82;;;9.50;70.60;;;;;;10463547;28;19933;-25
2022/12/26 13:44:54;;;;;;;3.30;1.23;;;10.80;76.30;;;;;;10437981;28;20045;-24
2022/12/26 13:49:56;;;;;;;8.50;0.83;;;10.20;82.90;;;;;;10433526;28;20528;-25
2022/12/26 13:55:40;;;;;;;5.65;1.23;;;9.80;72.90;;;;;;10426896;28;20069;-23
2022/12/26 14:00:45;;;;;;;7.72;0.98;;;9.30;73.40;;;;;;10440913;28;20060;-26
2022/12/26 14:06:22;;;;;;;9.98;1.33;;;10.70;76.20;;;;;;10437759;28;20076;-26
2022/12/26 14:11:40;;;;;;;5.63;1.33;;;11.40;65.60;;;;;;10429580;28;20126;-25
2022/12/26 14:16:50;;;;;;;2.08;0.95;;;10.30;88.30;;;;;;10435947;28;20140;-25
2022/12/26 14:21:59;;;;;;;11.95;1.70;;;11.80;83.40;;;;;;10437780;28;20427;-25
2022/12/26 14:27:28;;;;;;;11.70;1.30;;;11.30;82.90;;;;;;10434323;28;20118;-25
2022/12/26 14:32:40;;;;;;;11.88;1.58;;;10.60;96.00;;;;;;10452834;28;20080;-25
2022/12/26 14:37:50;;;;;;;3.70;0.77;;;10.20;90.40;;;;;;10438963;28;20084;-26
2022/12/26 14:43:23;;;;;;;5.63;1.42;;;10.40;99.90;;;;;;10438689;28;20504;-27
2022/12/26 14:48:53;;;;;;;13.30;1.80;;;11.00;97.90;;;;;;10438931;28;20076;-26
2022/12/26 14:54:32;;;;;;;14.77;1.50;;;11.00;80.70;;;;;;10447479;28;20138;-26
2022/12/26 14:59:37;;;;;;;6.80;1.17;;;10.10;72.30;;;;;;10426821;28;20402;-27
2022/12/26 15:05:07;;;;;;;9.77;1.50;;;10.60;99.90;;;;;;10441791;28;20068;-26
2022/12/26 15:10:49;;;;;;;11.23;2.13;;;9.20;86.90;;;;;;10447269;28;20129;-25
2022/12/26 15:16:08;;;;;;;6.45;1.65;;;9.60;90.20;;;;;;10350645;28;20472;-25
2022/12/26 15:21:55;;;;;;;11.57;2.58;;;10.40;99.90;;;;;;10362448;28;20054;-26
2022/12/26 15:27:33;;;;;;;9.95;1.35;;;10.20;90.60;;;;;;10360027;28;20046;-26
2022/12/26 15:32:43;;;;;;;10.27;1.30;;;9.40;86.00;;;;;;10355693;28;20560;-26
2022/12/26 15:38:07;;;;;;;5.88;1.20;;;10.20;99.90;;;;;;10366751;28;20054;-28
2022/12/26 15:43:33;;;;;;;11.50;1.50;;;9.70;99.90;;;;;;10369994;28;20128;-26
2022/12/26 15:48:53;;;;;;;10.38;1.45;;;9.20;96.60;;;;;;10364067;28;20092;-25
2022/12/26 15:54:11;;;;;;;13.25;1.73;;;9.20;99.90;;;;;;10359412;28;20049;-25
2022/12/26 15:59:40;;;;;;;8.50;0.85;;;8.60;79.40;;;;;;10368202;28;20080;-26
2022/12/26 16:04:48;;;;;;;2.88;0.90;;;9.70;99.90;;;;;;10368652;28;20065;-29
2022/12/26 16:09:51;;;;;;;10.95;1.40;;;9.10;99.90;;;;;;10365139;28;20050;-25
2022/12/26 16:15:02;;;;;;;10.23;1.25;;;8.20;92.70;;;;;;10431066;28;20136;-25
2022/12/26 16:22:42;;;;;;;11.23;1.52;;;9.00;99.90;;;;;;10434011;28;20116;-26
2022/12/26 16:25:47;;;;;;;3.30;0.93;;;9.20;96.40;;;;;;10440960;28;20144;-26
2022/12/26 16:30:48;;;;;;;3.40;0.95;;;8.50;99.90;;;;;;10444840;28;20083;-25
2022/12/26 16:35:52;;;;;;;5.50;1.30;;;8.70;99.30;;;;;;10444915;28;20052;-26
2022/12/26 16:40:55;;;;;;;9.65;2.33;;;9.00;95.90;;;;;;10443458;28;20144;-25
2022/12/26 16:46:02;;;;;;;6.90;1.95;;;10.00;78.10;;;;;;10443673;28;20045;-29
2022/12/26 16:51:07;;;;;;;4.40;1.05;;;10.90;83.70;;;;;;10442863;28;20041;-26
2022/12/26 16:56:22;;;;;;;2.30;0.95;;;9.40;99.90;;;;;;10450970;28;20057;-26
2022/12/26 17:01:24;;;;;;;13.10;1.67;;;8.70;88.10;;;;;;10454118;28;20119;-28
2022/12/26 17:06:30;;;;;;;7.15;0.90;;;8.90;77.20;;;;;;10444063;28;20551;-25
2022/12/26 17:11:36;;;;;;;5.80;1.20;;;8.10;82.80;;;;;;10433424;28;20092;-25
2022/12/26 17:16:38;;;;;;;7.95;2.40;;;7.70;87.10;;;;;;10432023;28;20049;-26
2022/12/26 17:21:42;;;;;;;5.53;1.85;;;7.50;76.80;;;;;;10453163;28;20041;-26
2022/12/26 17:26:49;;;;;;;7.97;2.33;;;7.50;76.10;;;;;;10452604;28;20093;-25
2022/12/26 17:31:51;;;;;;;3.85;1.55;;;7.30;77.20;;;;;;10446037;28;20077;-25
2022/12/26 17:36:55;;;;;;;5.07;1.40;;;8.30;86.60;;;;;;10460035;28;20053;-26
2022/12/26 17:41:59;;;;;;;5.82;1.70;;;7.70;75.20;;;;;;10444831;28;20045;-25
2022/12/26 17:47:02;;;;;;;14.25;3.65;;;8.10;99.90;;;;;;10446415;28;20239;-27
2022/12/26 17:52:06;;;;;;;8.35;1.50;;;8.70;76.20;;;;;;10448531;28;20466;-22
2022/12/26 17:57:16;;;;;;;5.95;1.40;;;7.90;76.70;;;;;;10445219;28;20138;-25
2022/12/26 18:02:19;;;;;;;7.47;1.45;;;8.10;91.80;;;;;;10444810;28;20095;-26
2022/12/26 18:07:24;;;;;;;5.97;1.05;;;8.00;98.00;;;;;;10445619;28;20072;-26
2022/12/26 18:12:27;;;;;;;8.32;1.05;;;8.20;71.60;;;;;;10452077;28;20060;-27
2022/12/26 18:17:31;;;;;;;5.20;1.02;;;8.00;77.90;;;;;;10449684;28;20799;-25
2022/12/26 18:22:34;;;;;;;9.80;1.42;;;8.10;95.70;;;;;;10433442;28;20135;-27
2022/12/26 18:27:36;;;;;;;3.65;1.25;;;7.70;73.20;;;;;;10436627;28;20077;-25
2022/12/26 18:32:38;;;;;;;8.73;1.35;;;7.90;91.10;;;;;;10446861;28;20049;-28
2022/12/26 18:37:46;;;;;;;10.40;1.45;;;7.80;92.90;;;;;;10459449;28;20057;-26
2022/12/26 18:42:48;;;;;;;10.40;1.50;;;7.90;87.70;;;;;;10440805;28;20041;-25
2022/12/26 18:47:50;;;;;;;4.72;1.20;;;7.80;98.40;;;;;;10446065;28;20085;-25
2022/12/26 18:52:53;;;;;;;7.97;1.55;;;8.00;99.90;;;;;;10445472;28;20126;-28
2022/12/26 18:57:56;;;;;;;5.35;0.90;;;7.60;83.00;;;;;;10442505;28;20478;-25
2022/12/26 19:02:58;;;;;;;3.40;0.87;;;8.10;99.90;;;;;;10447977;28;20068;-25
2022/12/26 19:08:02;;;;;;;3.33;0.90;;;7.70;84.50;;;;;;10435496;28;20071;-26
2022/12/26 19:13:04;;;;;;;10.60;1.33;;;8.40;99.90;;;;;;10454805;28;20098;-29
2022/12/26 19:18:06;;;;;;;8.55;1.67;;;7.80;82.70;;;;;;10447146;28;20053;-26
2022/12/26 19:23:09;;;;;;;8.52;1.85;;;8.20;91.80;;;;;;10447083;28;20076;-25
2022/12/26 19:28:11;;;;;;;;;;;7.70;91.10;;;;;;10429961;28;20072;-26
2022/12/26 19:33:13;;;;;;;5.30;1.35;;;7.80;90.70;;;;;;10445403;28;20712;-25
2022/12/26 19:38:16;;;;;;;7.53;1.45;;;8.10;88.60;;;;;;10446000;28;20052;-27
2022/12/26 19:43:18;;;;;;;10.55;1.20;;;8.90;86.80;;;;;;10438829;28;20045;-28
2022/12/26 19:48:20;;;;;;;9.32;1.23;;;9.30;99.90;;;;;;10449233;28;20136;-25
2022/12/26 19:53:24;;;;;;;12.10;1.98;;;8.80;93.90;;;;;;10438921;28;20045;-26
2022/12/26 19:58:30;;;;;;;15.82;2.55;;;8.70;99.90;;;;;;10440656;28;20134;-26
2022/12/26 20:03:32;;;;;;;8.57;1.55;;;8.10;93.10;;;;;;10441328;28;20073;-26
2022/12/26 20:08:35;;;;;;;6.88;1.38;;;8.70;96.50;;;;;;10450162;28;20075;-25
2022/12/26 20:13:37;;;;;;;;;;;8.20;93.20;;;;;;10453960;28;20559;-27
2022/12/26 20:18:39;;;;;;;11.35;1.75;;;8.50;92.00;;;;;;10445248;28;19974;-26
2022/12/26 20:23:43;;;;;;;10.98;1.65;;;8.00;92.80;;;;;;10439547;28;20076;-27
2022/12/26 20:28:46;;;;;;;4.90;1.77;;;8.60;91.90;;;;;;10433561;28;20122;-25
2022/12/26 20:33:50;;;;;;;9.40;1.63;;;8.40;92.40;;;;;;10433064;28;20088;-25
2022/12/26 20:38:53;;;;;;;;;;;8.20;93.70;;;;;;10436403;28;20071;-27
2022/12/26 20:43:55;;;;;;;;;;;9.10;98.60;;;;;;10424597;28;19929;-25
2022/12/26 20:48:57;;;;;;;9.98;1.67;;;8.00;96.10;;;;;;10443415;28;20023;-27
2022/12/26 20:54:01;;;;;;;11.70;1.77;;;8.90;94.60;;;;;;10447396;28;20053;-25
2022/12/26 20:59:04;;;;;;;9.25;2.22;;;8.40;98.00;;;;;;10453842;28;20135;-26
2022/12/26 21:04:07;;;;;;;12.38;1.95;;;8.30;95.50;;;;;;10453029;28;20048;-25
2022/12/26 21:09:10;;;;;;;8.40;1.83;;;8.30;95.40;;;;;;10449851;28;20702;-25
2022/12/26 21:14:15;;;;;;;9.68;1.77;;;8.10;97.10;;;;;;10443655;28;20061;-27
2022/12/26 21:19:18;;;;;;;11.13;2.00;;;8.10;96.90;;;;;;10452568;28;20049;-27
2022/12/26 21:24:25;;;;;;;12.05;2.10;;;8.40;99.60;;;;;;10463979;28;20048;-25
2022/12/26 21:29:30;;;;;;;15.63;1.42;;;8.70;99.90;;;;;;10434565;28;20534;-27
2022/12/26 21:34:33;;;;;;;8.75;1.52;;;9.00;99.90;;;;;;10433002;28;20244;-25
2022/12/26 21:39:37;;;;;;;18.30;2.33;;;8.10;96.50;;;;;;10437320;28;20049;-27
2022/12/26 21:44:39;;;;;;;8.77;1.60;;;8.40;97.20;;;;;;10453363;28;20045;-27
2022/12/26 21:49:41;;;;;;;11.07;2.50;;;7.80;98.20;;;;;;10449052;28;20050;-26
2022/12/26 22:00:05;;;;;;;7.22;1.77;;;8.40;96.50;;;;;;10452671;28;20474;-27
2022/12/26 22:05:07;;;;;;;12.57;2.10;;;9.20;94.70;;;;;;10441317;28;20077;-26
2022/12/26 22:12:55;;;;;;;7.97;1.60;;;8.30;96.60;;;;;;10457519;28;20103;-27
2022/12/26 22:20:54;;;;;;;13.45;2.13;;;8.90;95.10;;;;;;10438602;28;20045;-27
2022/12/26 22:25:58;;;;;;;12.15;2.08;;;8.10;98.00;;;;;;10444913;28;20041;-24
2022/12/26 22:31:00;;;;;;;10.20;1.17;;;8.40;99.80;;;;;;10449562;28;20102;-26
2022/12/26 22:36:06;;;;;;;21.13;2.37;;;8.40;99.90;;;;;;10437168;28;20152;-28
2022/12/26 22:41:10;;;;;;;12.35;1.67;;;8.40;99.90;;;;;;10447298;28;20045;-26
2022/12/26 22:46:12;;;;;;;10.50;1.98;;;8.00;99.90;;;;;;10429830;28;20145;-26
2022/12/26 22:51:16;;;;;;;12.73;1.93;;;8.20;98.60;;;;;;10453682;28;20684;-26
2022/12/26 22:56:19;;;;;;;19.48;2.20;;;7.80;99.90;;;;;;10448270;28;20103;-25
2022/12/26 23:01:21;;;;;;;;;;;7.80;99.90;;;;;;10451897;28;20132;-28
2022/12/26 23:06:27;;;;;;;12.73;1.60;;;7.80;99.90;;;;;;10459777;28;20014;-25
2022/12/26 23:11:33;;;;;;;8.55;2.15;;;7.70;99.90;;;;;;10459780;28;20106;-25
2022/12/26 23:16:39;;;;;;;18.13;2.25;;;7.90;99.90;;;;;;10450735;28;20088;-25
2022/12/26 23:21:42;;;;;;;17.50;1.75;;;8.00;99.90;;;;;;10444100;28;20041;-23
2022/12/26 23:26:47;;;;;;;7.57;1.58;;;8.00;99.90;;;;;;10450151;28;20080;-25
2022/12/26 23:31:49;;;;;;;23.48;2.75;;;8.30;99.90;;;;;;10439066;28;20053;-25
2022/12/26 23:36:51;;;;;;;6.00;1.90;;;7.90;99.90;;;;;;10431970;28;20077;-29
2022/12/26 23:41:54;;;;;;;13.25;1.33;;;7.90;99.90;;;;;;10439083;28;20128;-26
2022/12/26 23:46:56;;;;;;;16.55;2.53;;;8.00;99.90;;;;;;10446681;28;20107;-25
2022/12/26 23:51:58;;;;;;;12.48;2.35;;;8.20;98.70;;;;;;10435536;28;20106;-25
2022/12/26 23:57:01;;;;;;;10.35;1.88;;;8.20;99.90;;;;;;10447984;28;20045;-25
